createdAt,value
2019-04-25T00:00:43.163Z,12.75
2019-04-25T00:03:12.270Z,12.20
2019-04-25T00:05:40.510Z,13.03
2019-04-25T00:08:09.523Z,13.22
2019-04-25T00:10:37.785Z,11.15
2019-04-25T00:13:05.916Z,13.65
2019-04-25T00:15:33.547Z,14.30
2019-04-25T00:18:02.340Z,13.75
2019-04-25T00:20:31.872Z,12.00
2019-04-25T00:23:07.373Z,15.35
2019-04-25T00:25:52.702Z,16.12
2019-04-25T00:28:21.646Z,12.37
2019-04-25T00:30:49.598Z,15.45
2019-04-25T00:33:17.715Z,16.20
2019-04-25T00:35:45.773Z,18.67
2019-04-25T00:38:15.421Z,14.75
2019-04-25T00:40:43.941Z,13.68
2019-04-25T00:43:12.577Z,13.70
2019-04-25T00:45:41.506Z,11.90
2019-04-25T00:48:09.384Z,14.98
2019-04-25T00:50:37.020Z,13.70
2019-04-25T00:53:04.497Z,13.32
2019-04-25T00:55:31.744Z,15.98
2019-04-25T00:58:01.385Z,13.48
2019-04-25T01:00:47.439Z,19.17
2019-04-25T01:03:21.525Z,16.73
2019-04-25T01:05:52.423Z,13.90
2019-04-25T01:08:21.893Z,17.75
2019-04-25T01:10:50.521Z,11.80
2019-04-25T01:13:18.841Z,19.70
2019-04-25T01:15:47.363Z,16.70
2019-04-25T01:18:14.872Z,17.30
2019-04-25T01:20:43.461Z,16.30
2019-04-25T01:23:11.161Z,16.05
2019-04-25T01:25:42.495Z,19.80
2019-04-25T01:28:08.286Z,13.53
2019-04-25T01:30:35.784Z,19.77
2019-04-25T01:33:04.235Z,15.78
2019-04-25T01:35:39.241Z,12.37
2019-04-25T01:38:11.226Z,16.60
2019-04-25T01:40:40.747Z,16.12
2019-04-25T01:43:13.782Z,15.25
2019-04-25T01:45:41.467Z,16.73
2019-04-25T01:48:08.859Z,12.53
2019-04-25T01:50:36.317Z,13.62
2019-04-25T01:53:03.875Z,16.23
2019-04-25T01:55:31.434Z,15.10
2019-04-25T01:57:59.848Z,13.20
2019-04-25T02:00:29.322Z,18.37
2019-04-25T02:02:56.811Z,13.22
2019-04-25T02:05:24.428Z,13.80
2019-04-25T02:07:52.961Z,15.03
2019-04-25T02:10:23.394Z,19.17
2019-04-25T02:12:55.154Z,12.00
2019-04-25T02:15:23.804Z,12.63
2019-04-25T02:17:53.513Z,16.17
2019-04-25T02:20:22.013Z,14.15
2019-04-25T02:22:52.149Z,14.73
2019-04-25T02:25:19.777Z,16.00
2019-04-25T02:27:47.151Z,17.87
2019-04-25T02:30:16.205Z,15.55
2019-04-25T02:32:44.700Z,15.70
2019-04-25T02:35:14.203Z,16.42
2019-04-25T02:37:41.473Z,15.50
2019-04-25T02:40:13.971Z,16.75
2019-04-25T02:42:41.034Z,14.33
2019-04-25T02:45:11.257Z,13.30
2019-04-25T02:47:46.424Z,17.45
2019-04-25T02:50:15.568Z,13.25
2019-04-25T02:52:44.628Z,16.10
2019-04-25T02:55:29.614Z,16.70
2019-04-25T02:57:41.793Z,13.93
2019-04-25T03:00:18.568Z,19.57
2019-04-25T03:02:46.255Z,14.00
2019-04-25T03:05:14.382Z,15.05
2019-04-25T03:07:44.563Z,19.87
2019-04-25T03:10:14.658Z,16.02
2019-04-25T03:12:41.975Z,21.35
2019-04-25T03:15:10.429Z,19.50
2019-04-25T03:17:38.185Z,16.87
2019-04-25T03:20:24.675Z,14.75
2019-04-25T03:22:54.758Z,19.35
2019-04-25T03:25:24.776Z,18.07
2019-04-25T03:27:54.106Z,20.70
2019-04-25T03:30:21.947Z,17.05
2019-04-25T03:32:51.489Z,18.75
2019-04-25T03:35:20.682Z,10.90
2019-04-25T03:37:48.121Z,16.07
2019-04-25T03:40:15.268Z,14.18
2019-04-25T03:42:43.934Z,15.58
2019-04-25T03:45:11.562Z,12.80
2019-04-25T03:47:38.938Z,18.48
2019-04-25T03:50:07.262Z,14.33
2019-04-25T03:52:35.528Z,14.03
2019-04-25T03:55:05.126Z,16.42
2019-04-25T03:57:33.818Z,15.40
2019-04-25T04:00:01.328Z,15.28
2019-04-25T04:02:28.637Z,13.50
2019-04-25T04:04:56.123Z,15.30
2019-04-25T04:07:23.856Z,18.85
2019-04-25T04:09:51.384Z,21.95
2019-04-25T04:12:18.646Z,12.75
2019-04-25T04:14:45.923Z,17.27
2019-04-25T04:17:21.184Z,17.67
2019-04-25T04:19:56.281Z,11.75
2019-04-25T04:22:25.671Z,20.10
2019-04-25T04:24:54.692Z,17.45
2019-04-25T04:27:23.868Z,17.37
2019-04-25T04:29:51.360Z,16.73
2019-04-25T04:32:19.022Z,15.55
2019-04-25T04:34:46.290Z,21.42
2019-04-25T04:37:14.803Z,14.15
2019-04-25T04:39:43.738Z,18.00
2019-04-25T04:42:11.676Z,17.27
2019-04-25T04:44:39.042Z,16.05
2019-04-25T04:47:06.489Z,14.58
2019-04-25T04:49:34.800Z,14.07
2019-04-25T04:52:06.083Z,20.80
2019-04-25T04:54:32.081Z,11.95
2019-04-25T04:56:59.646Z,12.35
2019-04-25T04:59:27.034Z,12.78
2019-04-25T05:02:14.232Z,14.63
2019-04-25T05:04:54.275Z,16.75
2019-04-25T05:07:23.734Z,15.00
2019-04-25T05:09:53.525Z,17.42
2019-04-25T05:12:21.648Z,16.17
2019-04-25T05:14:49.127Z,14.23
2019-04-25T05:17:17.704Z,18.77
2019-04-25T05:19:45.365Z,14.03
2019-04-25T05:22:14.538Z,16.05
2019-04-25T05:24:43.758Z,14.40
2019-04-25T05:27:10.933Z,16.07
2019-04-25T05:29:38.836Z,14.05
2019-04-25T05:32:06.583Z,13.05
2019-04-25T05:34:35.364Z,19.07
2019-04-25T05:37:03.863Z,13.45
2019-04-25T05:39:33.483Z,13.13
2019-04-25T05:42:11.896Z,14.55
2019-04-25T05:44:39.821Z,17.75
2019-04-25T05:47:08.200Z,13.20
2019-04-25T05:49:35.481Z,15.38
2019-04-25T05:52:04.044Z,14.78
2019-04-25T05:54:31.406Z,13.58
2019-04-25T05:56:58.811Z,13.48
2019-04-25T05:59:26.928Z,13.13
2019-04-25T06:01:54.593Z,15.48
2019-04-25T06:04:24.479Z,15.88
2019-04-25T06:06:53.040Z,13.15
2019-04-25T06:09:24.062Z,12.70
2019-04-25T06:11:54.200Z,16.65
2019-04-25T06:14:23.674Z,16.30
2019-04-25T06:16:53.656Z,19.10
2019-04-25T06:19:40.170Z,12.47
2019-04-25T06:22:09.466Z,17.75
2019-04-25T06:24:44.513Z,12.70
2019-04-25T06:27:14.314Z,13.03
2019-04-25T06:29:43.184Z,16.10
2019-04-25T06:32:10.835Z,12.47
2019-04-25T06:34:38.278Z,14.03
2019-04-25T06:37:06.212Z,16.02
2019-04-25T06:39:34.027Z,14.58
2019-04-25T06:42:01.628Z,15.53
2019-04-25T06:44:30.802Z,13.53
2019-04-25T06:47:08.799Z,14.23
2019-04-25T06:49:37.794Z,11.20
2019-04-25T06:52:05.695Z,13.65
2019-04-25T06:54:35.132Z,19.45
2019-04-25T06:57:04.515Z,17.70
2019-04-25T06:59:34.004Z,13.60
2019-04-25T07:02:01.459Z,12.60
2019-04-25T07:04:29.241Z,15.93
2019-04-25T07:06:56.547Z,13.75
2019-04-25T07:09:27.227Z,12.70
2019-04-25T07:11:53.979Z,14.70
2019-04-25T07:14:21.440Z,14.38
2019-04-25T07:16:48.830Z,12.15
2019-04-25T07:19:17.572Z,14.15
2019-04-25T07:21:46.043Z,15.35
2019-04-25T07:24:14.529Z,11.68
2019-04-25T07:26:44.773Z,14.55
2019-04-25T07:29:17.040Z,15.85
2019-04-25T07:31:49.386Z,16.17
2019-04-25T07:34:21.794Z,13.03
2019-04-25T07:36:49.715Z,13.55
2019-04-25T07:39:17.503Z,17.32
2019-04-25T07:41:45.256Z,11.43
2019-04-25T07:44:14.551Z,14.98
2019-04-25T07:46:43.375Z,14.25
2019-04-25T07:49:11.014Z,13.20
2019-04-25T07:51:38.461Z,9.65
2019-04-25T07:54:06.233Z,14.20
2019-04-25T07:56:35.540Z,14.20
2019-04-25T07:59:06.125Z,12.53
2019-04-25T08:01:37.300Z,15.35
2019-04-25T08:04:04.504Z,15.32
2019-04-25T08:06:33.408Z,13.45
2019-04-25T08:09:01.290Z,17.00
2019-04-25T08:11:30.660Z,10.58
2019-04-25T08:14:16.512Z,15.23
2019-04-25T08:16:46.058Z,11.12
2019-04-25T08:19:13.688Z,12.30
2019-04-25T08:21:41.152Z,9.98
2019-04-25T08:24:09.119Z,17.05
2019-04-25T08:26:38.178Z,15.08
2019-04-25T08:29:06.026Z,10.85
2019-04-25T08:31:34.881Z,12.13
2019-04-25T08:34:03.602Z,13.15
2019-04-25T08:36:31.240Z,12.70
2019-04-25T08:38:59.210Z,17.55
2019-04-25T08:41:26.606Z,12.35
2019-04-25T08:43:54.534Z,10.85
2019-04-25T08:46:23.541Z,15.15
2019-04-25T08:49:04.724Z,12.33
2019-04-25T08:51:36.233Z,15.95
2019-04-25T08:54:23.626Z,12.30
2019-04-25T08:56:53.190Z,12.45
2019-04-25T08:59:42.401Z,14.68
2019-04-25T09:02:23.559Z,13.83
2019-04-25T09:05:10.237Z,14.20
2019-04-25T09:07:39.008Z,17.12
2019-04-25T09:10:07.214Z,13.75
2019-04-25T09:12:35.514Z,14.90
2019-04-25T09:15:04.354Z,10.82
2019-04-25T09:17:35.494Z,11.95
2019-04-25T09:20:03.614Z,18.40
2019-04-25T09:22:31.638Z,14.13
2019-04-25T09:25:00.368Z,12.82
2019-04-25T09:27:28.321Z,9.35
2019-04-25T09:29:55.677Z,13.38
2019-04-25T09:32:23.842Z,11.78
2019-04-25T09:34:52.620Z,9.43
2019-04-25T09:37:20.665Z,11.03
2019-04-25T09:39:53.756Z,11.95
2019-04-25T09:42:23.788Z,10.68
2019-04-25T09:45:03.783Z,13.83
2019-04-25T09:47:31.359Z,11.75
2019-04-25T09:50:04.163Z,13.70
2019-04-25T09:52:31.698Z,17.80
2019-04-25T09:55:01.075Z,22.35
2019-04-25T09:57:39.508Z,12.30
2019-04-25T10:00:09.695Z,15.90
2019-04-25T10:02:38.160Z,11.00
2019-04-25T10:05:05.799Z,11.05
2019-04-25T10:07:33.085Z,12.33
2019-04-25T10:10:00.861Z,10.68
2019-04-25T10:12:28.340Z,12.23
2019-04-25T10:15:43.019Z,19.82
2019-04-25T10:18:14.112Z,10.72
2019-04-25T10:20:41.181Z,11.57
2019-04-25T10:23:10.636Z,12.68
2019-04-25T10:25:39.578Z,11.12
2019-04-25T10:28:07.281Z,16.17
2019-04-25T10:30:35.795Z,12.53
2019-04-25T10:33:04.059Z,11.20
2019-04-25T10:35:34.237Z,10.15
2019-04-25T10:38:03.534Z,11.40
2019-04-25T10:40:31.790Z,13.55
2019-04-25T10:42:59.756Z,14.20
2019-04-25T10:45:27.249Z,13.48
2019-04-25T10:47:56.465Z,11.60
2019-04-25T10:50:24.004Z,12.58
2019-04-25T10:52:52.738Z,12.10
2019-04-25T10:55:23.286Z,14.30
2019-04-25T10:57:51.080Z,15.00
2019-04-25T11:00:24.320Z,9.65
2019-04-25T11:02:53.810Z,15.28
2019-04-25T11:05:21.643Z,12.45
2019-04-25T11:07:49.112Z,13.98
2019-04-25T11:10:17.833Z,12.20
2019-04-25T11:12:47.170Z,14.53
2019-04-25T11:15:15.040Z,14.95
2019-04-25T11:17:45.800Z,9.33
2019-04-25T11:20:23.962Z,11.78
2019-04-25T11:22:52.086Z,6.08
2019-04-25T11:25:24.037Z,15.68
2019-04-25T11:27:54.136Z,10.28
2019-04-25T11:30:25.629Z,9.10
2019-04-25T11:32:54.734Z,9.93
2019-04-25T11:35:24.105Z,9.33
2019-04-25T11:37:54.842Z,12.75
2019-04-25T11:40:27.921Z,10.65
2019-04-25T11:42:55.507Z,15.55
2019-04-25T11:45:23.119Z,19.50
2019-04-25T11:47:50.909Z,12.30
2019-04-25T11:50:18.757Z,11.15
2019-04-25T11:52:46.919Z,13.03
2019-04-25T11:55:14.927Z,13.10
2019-04-25T11:57:48.277Z,9.63
2019-04-25T12:00:21.935Z,11.88
2019-04-25T12:02:44.050Z,11.88
2019-04-25T12:05:11.348Z,13.38
2019-04-25T12:07:38.575Z,10.65
2019-04-25T12:10:08.171Z,10.85
2019-04-25T12:12:37.170Z,12.60
2019-04-25T12:15:04.909Z,16.37
2019-04-25T12:17:35.169Z,12.47
2019-04-25T12:20:03.919Z,12.50
2019-04-25T12:22:31.441Z,14.93
2019-04-25T12:24:58.836Z,9.85
2019-04-25T12:27:26.100Z,6.78
2019-04-25T12:29:54.443Z,11.83
2019-04-25T12:32:22.049Z,10.70
2019-04-25T12:34:49.569Z,10.80
2019-04-25T12:37:17.269Z,12.40
2019-04-25T12:39:46.093Z,9.08
2019-04-25T12:42:14.557Z,11.38
2019-04-25T12:44:56.119Z,10.38
2019-04-25T12:47:31.479Z,14.68
2019-04-25T12:49:58.963Z,18.80
2019-04-25T12:52:26.277Z,13.85
2019-04-25T12:54:57.207Z,10.40
2019-04-25T12:57:24.078Z,10.88
2019-04-25T12:59:51.799Z,11.50
2019-04-25T13:02:19.186Z,8.03
2019-04-25T13:04:47.774Z,16.27
2019-04-25T13:07:15.611Z,11.03
2019-04-25T13:09:43.096Z,12.90
2019-04-25T13:12:13.449Z,11.25
2019-04-25T13:14:40.913Z,9.35
2019-04-25T13:17:09.318Z,11.97
2019-04-25T13:19:38.078Z,8.95
2019-04-25T13:22:06.038Z,12.65
2019-04-25T13:24:33.710Z,9.68
2019-04-25T13:27:06.133Z,11.08
2019-04-25T13:29:53.231Z,11.90
2019-04-25T13:32:34.996Z,10.25
2019-04-25T13:35:04.807Z,11.12
2019-04-25T13:37:32.104Z,13.03
2019-04-25T13:40:00.573Z,12.47
2019-04-25T13:42:28.104Z,12.37
2019-04-25T13:44:56.579Z,7.15
2019-04-25T13:47:29.268Z,9.53
2019-04-25T13:49:56.788Z,11.12
2019-04-25T13:52:25.037Z,12.30
2019-04-25T13:54:53.849Z,10.85
2019-04-25T13:57:21.642Z,12.23
2019-04-25T13:59:49.113Z,16.27
2019-04-25T14:02:18.353Z,12.88
2019-04-25T14:04:45.861Z,12.93
2019-04-25T14:07:13.632Z,16.45
2019-04-25T14:09:41.096Z,9.33
2019-04-25T14:12:08.728Z,16.20
2019-04-25T14:14:36.206Z,16.25
2019-04-25T14:17:21.639Z,15.85
2019-04-25T14:19:54.552Z,10.00
2019-04-25T14:22:22.487Z,15.58
2019-04-25T14:24:51.112Z,13.95
2019-04-25T14:27:18.934Z,9.98
2019-04-25T14:29:46.427Z,9.13
2019-04-25T14:32:15.071Z,12.20
2019-04-25T14:34:43.269Z,12.85
2019-04-25T14:37:11.093Z,12.37
2019-04-25T14:39:39.238Z,11.57
2019-04-25T14:42:06.551Z,15.08
2019-04-25T14:44:33.955Z,9.40
2019-04-25T14:47:03.961Z,12.23
2019-04-25T14:49:31.418Z,14.28
2019-04-25T14:51:59.773Z,15.05
2019-04-25T14:54:36.118Z,14.63
2019-04-25T14:57:15.414Z,11.33
2019-04-25T14:59:42.614Z,7.95
2019-04-25T15:02:10.214Z,8.93
2019-04-25T15:04:37.613Z,12.85
2019-04-25T15:07:05.237Z,13.70
2019-04-25T15:09:33.057Z,12.35
2019-04-25T15:12:00.458Z,13.40
2019-04-25T15:14:28.130Z,11.97
2019-04-25T15:16:55.881Z,13.75
2019-04-25T15:19:24.145Z,12.58
2019-04-25T15:21:52.443Z,11.30
2019-04-25T15:24:20.179Z,6.60
2019-04-25T15:26:47.737Z,11.80
2019-04-25T15:29:15.428Z,9.03
2019-04-25T15:31:55.182Z,9.33
2019-04-25T15:34:12.761Z,8.90
2019-04-25T15:36:42.133Z,10.80
2019-04-25T15:39:28.911Z,14.28
2019-04-25T15:42:00.984Z,9.58
2019-04-25T15:44:46.438Z,10.25
2019-04-25T15:47:15.556Z,12.18
2019-04-25T15:49:42.991Z,14.78
2019-04-25T15:52:11.219Z,15.20
2019-04-25T15:54:38.717Z,10.35
2019-04-25T15:57:07.230Z,16.35
2019-04-25T15:59:34.944Z,9.33
2019-04-25T16:02:08.332Z,8.05
2019-04-25T16:04:35.623Z,11.60
2019-04-25T16:07:04.512Z,12.68
2019-04-25T16:09:33.229Z,12.50
2019-04-25T16:12:00.815Z,15.35
2019-04-25T16:14:28.641Z,11.60
2019-04-25T16:16:56.504Z,13.58
2019-04-25T16:19:24.396Z,12.07
2019-04-25T16:21:52.030Z,18.42
2019-04-25T16:24:19.992Z,12.45
2019-04-25T16:26:47.525Z,13.25
2019-04-25T16:29:15.886Z,13.78
2019-04-25T16:31:44.012Z,11.73
2019-04-25T16:34:11.840Z,15.55
2019-04-25T16:36:39.720Z,17.77
2019-04-25T16:39:09.185Z,18.05
2019-04-25T16:41:40.314Z,10.10
2019-04-25T18:01:21.398Z,18.27
2019-04-25T18:03:49.111Z,24.98
2019-04-25T18:06:17.168Z,26.82
2019-04-25T18:08:44.686Z,31.57
2019-04-25T18:11:12.552Z,32.50
2019-04-25T18:13:41.049Z,32.13
2019-04-25T18:16:15.076Z,41.70
2019-04-25T18:18:53.603Z,21.25
2019-04-25T18:21:21.149Z,23.32
2019-04-25T18:24:02.180Z,27.37
2019-04-25T18:26:35.251Z,33.38
2019-04-25T18:29:04.675Z,32.20
2019-04-25T18:31:31.986Z,37.20
2019-04-25T18:34:01.244Z,37.53
2019-04-25T18:36:30.567Z,33.25
2019-04-25T18:39:14.408Z,38.33
2019-04-25T18:41:44.060Z,39.65
2019-04-25T18:44:13.277Z,42.83
2019-04-25T18:46:45.585Z,37.20
2019-04-25T18:49:13.003Z,47.40
2019-04-25T18:51:40.704Z,51.15
2019-04-25T18:54:16.225Z,48.68
2019-04-25T18:57:00.371Z,55.17
2019-04-25T18:59:35.456Z,53.35
2019-04-25T19:02:21.456Z,39.70
2019-04-25T19:04:54.245Z,44.93
2019-04-25T19:07:23.052Z,50.73
2019-04-25T19:09:51.273Z,106.52
2019-04-25T19:12:19.667Z,152.05
2019-04-25T19:14:47.405Z,180.07
2019-04-25T19:17:15.487Z,138.72
2019-04-25T19:19:43.634Z,122.30
2019-04-25T19:22:11.148Z,114.55
2019-04-25T19:24:40.371Z,110.80
2019-04-25T19:27:08.264Z,123.02
2019-04-25T19:29:35.740Z,146.60
2019-04-25T19:32:03.148Z,140.97
2019-04-25T19:34:30.599Z,131.27
2019-04-25T19:36:58.664Z,127.92
2019-04-25T19:39:28.153Z,96.97
2019-04-25T19:42:09.760Z,101.70
2019-04-25T19:44:37.629Z,95.77
2019-04-25T19:47:04.803Z,86.87
2019-04-25T19:49:32.824Z,81.02
2019-04-25T19:52:00.148Z,74.55
2019-04-25T19:54:27.882Z,78.72
2019-04-25T19:56:56.515Z,68.45
2019-04-25T19:59:24.143Z,64.70
2019-04-25T20:01:53.945Z,77.47
2019-04-25T20:04:26.691Z,71.05
2019-04-25T20:07:11.452Z,87.37
2019-04-25T20:09:57.660Z,63.83
2019-04-25T20:12:29.725Z,69.40
2019-04-25T20:14:57.604Z,74.65
2019-04-25T20:17:25.063Z,83.82
2019-04-25T20:19:52.666Z,84.50
2019-04-25T20:22:20.086Z,85.32
2019-04-25T20:24:48.352Z,81.00
2019-04-25T20:27:16.101Z,83.62
2019-04-25T20:29:45.159Z,82.40
2019-04-25T20:32:12.785Z,73.20
2019-04-25T20:34:40.692Z,74.55
2019-04-25T20:37:08.196Z,67.62
2019-04-25T20:39:36.273Z,58.40
2019-04-25T20:42:03.619Z,48.30
2019-04-25T20:44:31.027Z,50.80
2019-04-25T20:46:58.617Z,46.53
2019-04-25T20:49:26.867Z,53.58
2019-04-25T20:51:54.737Z,50.03
2019-04-25T20:54:22.098Z,50.35
2019-04-25T20:56:49.457Z,47.60
2019-04-25T20:59:17.368Z,45.78
2019-04-25T21:01:44.723Z,48.65
2019-04-25T21:04:31.450Z,45.92
2019-04-25T21:06:59.455Z,59.40
2019-04-25T21:09:26.816Z,51.15
2019-04-25T21:11:54.338Z,44.38
2019-04-25T21:14:23.674Z,47.13
2019-04-25T21:16:53.872Z,33.83
2019-04-25T21:19:35.612Z,32.63
2019-04-25T21:22:03.396Z,27.65
2019-04-25T21:24:31.254Z,31.12
2019-04-25T21:27:00.048Z,39.08
2019-04-25T21:29:28.422Z,35.43
2019-04-25T21:31:56.785Z,45.90
2019-04-25T21:34:26.603Z,39.58
2019-04-25T21:36:53.564Z,34.55
2019-04-25T21:39:26.336Z,39.27
2019-04-25T21:41:55.850Z,46.45
2019-04-25T21:44:24.562Z,38.38
2019-04-25T21:46:52.455Z,40.23
2019-04-25T21:49:21.524Z,34.92
2019-04-25T21:51:50.494Z,42.70
2019-04-25T21:54:17.899Z,39.85
2019-04-25T21:56:46.053Z,39.67
2019-04-25T21:59:14.082Z,43.50
2019-04-25T22:01:42.994Z,31.23
2019-04-25T22:04:10.565Z,37.85
2019-04-25T22:06:39.916Z,33.65
2019-04-25T22:09:10.209Z,31.00
2019-04-25T22:11:37.548Z,26.62
2019-04-25T22:14:05.959Z,29.42
2019-04-25T22:16:33.473Z,33.40
2019-04-25T22:19:02.023Z,28.32
2019-04-25T22:21:37.951Z,30.75
2019-04-25T22:24:08.841Z,30.05
2019-04-25T22:26:28.759Z,25.97
2019-04-25T22:28:57.651Z,32.93
2019-04-25T22:31:28.776Z,31.12
2019-04-25T22:34:04.016Z,26.48
2019-04-25T22:36:32.065Z,31.80
2019-04-25T22:39:08.967Z,26.80
2019-04-25T22:41:39.735Z,26.70
2019-04-25T22:44:10.060Z,33.20
